Time;durP1;ratioP1;P1;durP2;ratioP2;P2;SDS_P1;SDS_P2;PMS_P1;PMS_P2;Temp;Humidity;BMP_temperature;BMP_pressure;BME280_temperature;BME280_humidity;BME280_pressure;Samples;Min_cycle;Max_cycle;Signal;HPM_P1;HPM_P2
2021/05/27 00:00:44;;;;;;;1.10;0.50;;;11.00;91.50;;;;;;5073862;28;20425;-72
2021/05/27 00:03:11;;;;;;;2.05;0.73;;;10.90;91.50;;;;;;5073368;28;20028;-72
2021/05/27 00:05:37;;;;;;;1.42;1.05;;;10.90;91.50;;;;;;5055680;28;20101;-71
2021/05/27 00:08:03;;;;;;;1.77;0.60;;;10.90;91.50;;;;;;5055632;28;20446;-72
2021/05/27 00:10:31;;;;;;;0.95;0.52;;;10.90;91.50;;;;;;5054976;28;20361;-72
2021/05/27 00:12:56;;;;;;;1.25;0.70;;;10.80;91.50;;;;;;5055637;28;20381;-72
2021/05/27 00:15:24;;;;;;;0.57;0.57;;;10.80;91.50;;;;;;5072836;28;20089;-72
2021/05/27 00:17:50;;;;;;;0.60;0.40;;;10.80;91.60;;;;;;5055472;28;20033;-72
2021/05/27 00:20:16;;;;;;;0.90;0.38;;;10.80;91.60;;;;;;5054914;28;20031;-71
2021/05/27 00:22:42;;;;;;;0.63;0.60;;;10.80;91.60;;;;;;5072353;28;20046;-71
2021/05/27 00:25:10;;;;;;;1.35;0.45;;;10.80;91.50;;;;;;5055079;28;20029;-72
2021/05/27 00:27:36;;;;;;;1.67;0.65;;;10.80;91.50;;;;;;5073194;28;20017;-72
2021/05/27 00:30:04;;;;;;;1.45;0.40;;;10.80;91.50;;;;;;5073178;28;20055;-72
2021/05/27 00:32:30;;;;;;;1.00;0.57;;;10.70;91.50;;;;;;5054642;28;20032;-72
2021/05/27 00:34:56;;;;;;;0.50;0.50;;;10.70;91.50;;;;;;5073047;28;20115;-72
2021/05/27 00:37:22;;;;;;;0.73;0.40;;;10.70;91.60;;;;;;5072506;28;20035;-72
2021/05/27 00:39:48;;;;;;;0.50;0.40;;;10.70;91.60;;;;;;5055062;28;20032;-72
2021/05/27 00:42:13;;;;;;;1.05;0.40;;;10.70;91.70;;;;;;5054642;28;20033;-74
2021/05/27 00:44:40;;;;;;;3.42;0.50;;;10.70;91.60;;;;;;5072875;28;20102;-72
2021/05/27 00:47:10;;;;;;;0.85;0.50;;;10.70;91.60;;;;;;5054957;28;20029;-72
2021/05/27 00:49:36;;;;;;;1.27;0.70;;;10.70;91.50;;;;;;5054719;28;20025;-72
2021/05/27 00:52:03;;;;;;;1.30;0.50;;;10.80;91.50;;;;;;5072758;28;20130;-72
2021/05/27 00:54:29;;;;;;;0.43;0.43;;;10.80;91.40;;;;;;5054425;28;20037;-72
2021/05/27 00:56:55;;;;;;;1.75;0.60;;;10.90;91.30;;;;;;5054862;28;20028;-72
2021/05/27 00:59:21;;;;;;;1.00;0.60;;;10.90;91.20;;;;;;5054302;28;20115;-72
2021/05/27 01:01:52;;;;;;;1.52;0.70;;;11.00;91.10;;;;;;5054959;28;20059;-72
2021/05/27 01:04:19;;;;;;;1.60;0.60;;;11.00;90.90;;;;;;5072221;28;20028;-72
2021/05/27 01:06:44;;;;;;;1.08;0.60;;;10.90;90.90;;;;;;5072728;28;20063;-72
2021/05/27 01:09:10;;;;;;;2.47;0.68;;;11.00;90.90;;;;;;5054679;28;20091;-72
2021/05/27 01:11:36;;;;;;;0.45;0.45;;;11.00;90.90;;;;;;5054274;28;20386;-73
2021/05/27 01:17:02;;;;;;;1.05;0.60;;;11.00;90.70;;;;;;5072601;28;20071;-72
2021/05/27 01:19:28;;;;;;;1.88;0.70;;;11.10;90.70;;;;;;5072066;28;20033;-72
2021/05/27 01:21:53;;;;;;;1.48;0.68;;;11.10;90.60;;;;;;5054482;28;20029;-72
2021/05/27 01:24:19;;;;;;;0.98;0.80;;;11.10;90.60;;;;;;5053772;28;20045;-73
2021/05/27 01:26:45;;;;;;;4.18;0.88;;;11.10;90.50;;;;;;5054663;28;20032;-72
2021/05/27 01:29:10;;;;;;;0.95;0.77;;;11.10;90.60;;;;;;5054402;28;20386;-74
2021/05/27 01:31:36;;;;;;;1.45;0.60;;;11.20;90.50;;;;;;5053896;28;20033;-72
2021/05/27 01:34:06;;;;;;;1.00;0.70;;;11.20;90.50;;;;;;5072532;28;20547;-72
2021/05/27 01:36:32;;;;;;;0.93;0.70;;;11.20;90.50;;;;;;5076008;28;20355;-73
2021/05/27 01:38:58;;;;;;;0.75;0.60;;;11.20;90.60;;;;;;5076095;28;20035;-73
2021/05/27 01:41:24;;;;;;;0.70;0.70;;;11.20;90.50;;;;;;5057917;28;20032;-72
2021/05/27 01:43:49;;;;;;;1.42;0.95;;;11.20;90.40;;;;;;5076347;28;20025;-72
2021/05/27 01:46:15;;;;;;;0.90;0.68;;;11.20;90.40;;;;;;5057736;28;20480;-73
2021/05/27 01:48:40;;;;;;;0.80;0.60;;;11.10;90.50;;;;;;5058324;28;20125;-73
2021/05/27 01:51:06;;;;;;;0.95;0.70;;;11.10;90.60;;;;;;5076228;28;20094;-72
2021/05/27 01:53:32;;;;;;;2.80;1.00;;;11.10;90.60;;;;;;5075279;28;20037;-73
2021/05/27 01:55:57;;;;;;;1.10;0.70;;;11.00;90.60;;;;;;5076091;28;20514;-72
2021/05/27 01:58:23;;;;;;;1.00;0.80;;;10.90;90.70;;;;;;5057524;28;20032;-73
2021/05/27 02:00:48;;;;;;;3.42;0.90;;;10.90;90.80;;;;;;5058105;28;20021;-72
2021/05/27 02:03:14;;;;;;;2.13;0.82;;;10.80;90.80;;;;;;5057905;28;20038;-78
2021/05/27 02:05:40;;;;;;;1.13;0.95;;;10.80;90.90;;;;;;5057939;28;20029;-72
2021/05/27 02:08:06;;;;;;;2.38;1.13;;;10.80;91.00;;;;;;5057991;28;20029;-72
2021/05/27 02:10:32;;;;;;;1.58;1.00;;;10.70;91.10;;;;;;5057398;28;20020;-72
2021/05/27 02:12:58;;;;;;;2.38;0.85;;;10.70;91.10;;;;;;5057709;28;20037;-72
2021/05/27 02:15:23;;;;;;;2.17;0.80;;;10.60;91.10;;;;;;5057203;28;20034;-73
2021/05/27 02:17:49;;;;;;;0.93;0.82;;;10.60;91.20;;;;;;5075686;28;20373;-73
2021/05/27 02:20:15;;;;;;;2.67;1.20;;;10.50;91.60;;;;;;5057845;28;20024;-73
2021/05/27 02:22:41;;;;;;;1.15;1.05;;;10.50;91.40;;;;;;5075014;28;20056;-73
2021/05/27 02:25:08;;;;;;;4.10;1.30;;;10.50;91.40;;;;;;5057718;28;20033;-73
2021/05/27 02:27:33;;;;;;;1.30;1.00;;;10.40;91.50;;;;;;5056997;28;20025;-73
2021/05/27 02:29:59;;;;;;;2.60;1.00;;;10.40;91.60;;;;;;5049617;28;20028;-73
2021/05/27 02:32:25;;;;;;;1.25;1.00;;;10.40;91.60;;;;;;5037002;28;20033;-73
2021/05/27 02:34:50;;;;;;;5.28;1.30;;;10.40;91.50;;;;;;5037610;28;20032;-73
2021/05/27 02:37:16;;;;;;;1.85;1.10;;;10.40;91.60;;;;;;5055132;28;20100;-78
2021/05/27 02:39:43;;;;;;;1.40;1.27;;;10.30;91.60;;;;;;5037403;28;20405;-73
2021/05/27 02:42:08;;;;;;;1.88;1.10;;;10.40;91.70;;;;;;5055226;28;20036;-73
2021/05/27 02:44:34;;;;;;;1.83;1.25;;;10.30;91.70;;;;;;5036781;28;20386;-73
2021/05/27 02:47:00;;;;;;;2.25;1.20;;;10.30;91.80;;;;;;5036652;28;20052;-73
2021/05/27 02:49:26;;;;;;;5.60;1.20;;;10.30;91.80;;;;;;5036773;28;20071;-73
2021/05/27 02:51:51;;;;;;;4.03;1.48;;;10.30;91.80;;;;;;5037137;28;20438;-73
2021/05/27 02:54:17;;;;;;;2.78;1.50;;;10.30;91.80;;;;;;5055329;28;20056;-77
2021/05/27 02:56:43;;;;;;;3.83;1.55;;;10.30;91.70;;;;;;5037086;28;20037;-73
2021/05/27 02:59:09;;;;;;;4.18;1.75;;;10.30;91.70;;;;;;5054931;28;20043;-73
2021/05/27 03:01:35;;;;;;;5.43;1.50;;;10.30;91.60;;;;;;5054098;28;20029;-73
2021/05/27 03:04:00;;;;;;;5.60;1.77;;;10.30;91.60;;;;;;5054885;28;20028;-73
2021/05/27 03:06:26;;;;;;;5.15;1.92;;;10.30;91.60;;;;;;5053995;28;20078;-73
2021/05/27 03:08:52;;;;;;;5.25;1.90;;;10.30;91.60;;;;;;5060680;28;20025;-73
2021/05/27 03:11:18;;;;;;;3.40;1.60;;;10.30;91.50;;;;;;5074607;28;20037;-73
2021/05/27 03:13:43;;;;;;;2.97;1.15;;;10.30;91.60;;;;;;5056758;28;20135;-73
2021/05/27 03:16:09;;;;;;;2.25;1.20;;;10.30;91.90;;;;;;5056676;28;20444;-73
2021/05/27 03:18:35;;;;;;;1.58;1.15;;;10.30;91.70;;;;;;5056157;28;20036;-73
2021/05/27 03:21:02;;;;;;;2.55;1.50;;;10.40;91.70;;;;;;5074550;28;20382;-73
2021/05/27 03:23:27;;;;;;;3.92;1.38;;;10.40;91.60;;;;;;5055541;28;20105;-72
2021/05/27 03:25:53;;;;;;;1.55;1.25;;;10.40;91.70;;;;;;5056552;28;20032;-73
2021/05/27 03:28:19;;;;;;;1.73;1.35;;;10.50;91.70;;;;;;5056458;28;20029;-73
2021/05/27 03:30:45;;;;;;;2.92;1.50;;;10.50;91.70;;;;;;5056334;28;20031;-73
2021/05/27 03:33:11;;;;;;;2.90;1.33;;;10.50;92.10;;;;;;5056233;28;20484;-72
2021/05/27 03:35:36;;;;;;;1.77;1.20;;;10.50;91.80;;;;;;5055537;28;20029;-73
2021/05/27 03:38:03;;;;;;;1.95;1.17;;;10.50;91.80;;;;;;5056245;28;20538;-73
2021/05/27 03:40:29;;;;;;;4.43;1.40;;;10.50;91.80;;;;;;5073403;28;20478;-73
2021/05/27 03:42:56;;;;;;;2.35;1.20;;;10.50;91.70;;;;;;5056124;28;20031;-73
2021/05/27 03:45:25;;;;;;;2.47;1.10;;;10.50;91.70;;;;;;5055658;28;20036;-74
2021/05/27 03:47:52;;;;;;;1.95;1.30;;;10.50;91.60;;;;;;5055955;28;20350;-73
2021/05/27 03:50:20;;;;;;;2.55;1.10;;;10.60;91.60;;;;;;5056019;28;20039;-73
2021/05/27 03:52:47;;;;;;;3.90;1.10;;;10.60;91.60;;;;;;5055795;28;20094;-73
2021/05/27 03:55:15;;;;;;;1.25;1.15;;;10.60;91.40;;;;;;5055872;28;20385;-73
2021/05/27 03:57:41;;;;;;;1.30;1.10;;;10.70;91.40;;;;;;5054735;28;20251;-73
2021/05/27 04:02:54;;;;;;;1.65;1.00;;;10.70;91.40;;;;;;5073883;28;20059;-73
2021/05/27 04:08:05;;;;;;;1.63;1.08;;;10.80;91.20;;;;;;5073613;28;20035;-73
2021/05/27 04:10:32;;;;;;;2.47;1.10;;;10.80;91.30;;;;;;5055107;28;20033;-73
2021/05/27 04:12:58;;;;;;;2.80;1.40;;;10.80;91.20;;;;;;5073482;28;20032;-73
2021/05/27 04:15:29;;;;;;;2.33;1.20;;;10.80;91.30;;;;;;5055044;28;20366;-73
2021/05/27 04:18:00;;;;;;;3.30;1.38;;;10.80;91.10;;;;;;5055753;28;20438;-73
2021/05/27 04:20:32;;;;;;;2.85;1.40;;;10.80;91.10;;;;;;5055127;28;20039;-73
2021/05/27 04:22:59;;;;;;;2.00;1.13;;;10.80;91.20;;;;;;5072922;28;20056;-72
2021/05/27 04:25:25;;;;;;;3.67;1.52;;;10.80;91.20;;;;;;5054839;28;20029;-72
2021/05/27 04:27:53;;;;;;;1.90;1.33;;;10.90;91.00;;;;;;5073155;28;20529;-71
2021/05/27 04:30:20;;;;;;;2.50;1.25;;;10.90;91.00;;;;;;5055389;28;20032;-72
2021/05/27 04:32:56;;;;;;;3.17;1.35;;;11.00;90.90;;;;;;5072552;28;20029;-72
2021/05/27 04:35:41;;;;;;;3.03;1.27;;;11.00;90.90;;;;;;5073104;28;20028;-72
2021/05/27 04:38:11;;;;;;;2.10;1.30;;;10.90;90.80;;;;;;5055263;28;20123;-71
2021/05/27 04:40:38;;;;;;;3.67;1.55;;;10.90;91.00;;;;;;5054549;28;20020;-72
2021/05/27 04:43:05;;;;;;;2.40;1.35;;;10.90;90.90;;;;;;5054749;28;20024;-72
2021/05/27 04:45:31;;;;;;;3.05;1.50;;;10.90;90.90;;;;;;5069493;28;20103;-72
2021/05/27 04:47:57;;;;;;;5.10;1.60;;;10.90;90.90;;;;;;5072912;28;20107;-72
2021/05/27 04:50:24;;;;;;;4.07;1.83;;;11.00;90.90;;;;;;5054945;28;20058;-72
2021/05/27 04:52:50;;;;;;;2.88;1.50;;;10.90;90.70;;;;;;5054751;28;20047;-71
2021/05/27 04:55:18;;;;;;;2.55;1.50;;;11.00;90.70;;;;;;5054841;28;20037;-71
2021/05/27 04:57:44;;;;;;;4.05;1.88;;;11.00;90.70;;;;;;5054288;28;20028;-71
2021/05/27 05:00:19;;;;;;;2.40;1.50;;;11.00;90.70;;;;;;5053792;28;20043;-71
2021/05/27 05:02:44;;;;;;;3.65;1.85;;;11.00;90.70;;;;;;5034350;28;20397;-72
2021/05/27 05:05:12;;;;;;;1.95;1.42;;;11.00;90.70;;;;;;5035352;28;20029;-72
2021/05/27 05:07:39;;;;;;;4.53;1.80;;;11.00;90.60;;;;;;5054109;28;20032;-72
2021/05/27 05:10:07;;;;;;;2.38;1.50;;;11.00;90.70;;;;;;5072063;28;20095;-73
2021/05/27 05:12:44;;;;;;;2.78;1.60;;;11.00;90.60;;;;;;5036428;28;20490;-72
2021/05/27 05:15:18;;;;;;;5.43;1.60;;;11.00;90.50;;;;;;5035534;28;20061;-72
2021/05/27 05:17:49;;;;;;;1.85;1.30;;;11.00;90.30;;;;;;5054062;28;20081;-72
2021/05/27 05:20:16;;;;;;;2.23;1.53;;;11.10;90.50;;;;;;5072380;28;20032;-72
2021/05/27 05:22:42;;;;;;;2.92;1.50;;;11.00;90.20;;;;;;5053754;28;20151;-72
2021/05/27 05:25:08;;;;;;;2.00;1.30;;;11.00;90.40;;;;;;5053954;28;20521;-72
2021/05/27 05:27:34;;;;;;;4.65;1.40;;;11.00;90.50;;;;;;5052032;28;20029;-72
2021/05/27 05:30:00;;;;;;;5.53;1.40;;;11.00;90.50;;;;;;5052842;28;20108;-72
2021/05/27 05:32:25;;;;;;;2.50;1.45;;;11.00;90.40;;;;;;5053756;28;20116;-72
2021/05/27 05:34:51;;;;;;;3.58;1.55;;;11.00;90.30;;;;;;5053896;28;20038;-72
2021/05/27 05:37:17;;;;;;;3.58;1.80;;;11.10;90.10;;;;;;5061749;28;20088;-72
2021/05/27 05:39:43;;;;;;;2.42;1.40;;;11.20;90.00;;;;;;5068122;28;20063;-72
2021/05/27 05:42:08;;;;;;;3.42;1.83;;;11.20;90.00;;;;;;5037018;28;20065;-72
2021/05/27 05:44:34;;;;;;;7.50;2.00;;;11.30;89.50;;;;;;5041891;28;20032;-72
2021/05/27 05:47:00;;;;;;;4.60;1.70;;;11.30;88.90;;;;;;5062815;28;20021;-72
2021/05/27 05:49:25;;;;;;;3.28;1.75;;;11.40;88.80;;;;;;5060211;28;20099;-74
2021/05/27 05:51:51;;;;;;;3.20;1.55;;;11.50;88.00;;;;;;5051746;28;20366;-71
2021/05/27 05:54:17;;;;;;;1.88;1.30;;;11.40;88.30;;;;;;5044389;28;20036;-72
2021/05/27 05:56:42;;;;;;;1.98;1.55;;;11.40;88.40;;;;;;5053622;28;20170;-74
2021/05/27 05:59:08;;;;;;;4.93;1.80;;;11.40;88.30;;;;;;5071630;28;20036;-72
2021/05/27 06:01:33;;;;;;;2.55;1.42;;;11.50;88.80;;;;;;5053491;28;20033;-73
2021/05/27 06:03:59;;;;;;;3.33;1.50;;;11.60;87.90;;;;;;5054222;28;20031;-72
2021/05/27 06:06:25;;;;;;;2.15;1.42;;;11.60;87.10;;;;;;5054341;28;20035;-72
2021/05/27 06:08:51;;;;;;;1.77;1.42;;;11.60;86.90;;;;;;5053422;28;20028;-72
2021/05/27 06:11:18;;;;;;;2.53;1.40;;;11.70;86.80;;;;;;5054149;28;20031;-72
2021/05/27 06:13:44;;;;;;;2.60;1.40;;;11.70;86.20;;;;;;5053475;28;20039;-72
2021/05/27 06:16:09;;;;;;;3.58;1.60;;;11.70;87.10;;;;;;5071725;28;20439;-72
2021/05/27 06:18:35;;;;;;;2.40;1.63;;;11.70;86.10;;;;;;5053485;28;20024;-72
2021/05/27 06:21:01;;;;;;;2.35;1.35;;;11.70;85.30;;;;;;5071854;28;20055;-72
2021/05/27 06:23:26;;;;;;;3.17;1.40;;;11.80;85.20;;;;;;5057117;28;20051;-72
2021/05/27 06:25:53;;;;;;;2.13;1.52;;;11.80;85.00;;;;;;5057125;28;20465;-72
2021/05/27 06:28:19;;;;;;;4.90;1.52;;;11.80;85.50;;;;;;5057522;28;20393;-72
2021/05/27 06:30:45;;;;;;;5.90;1.70;;;11.80;85.00;;;;;;5074551;28;20025;-72
2021/05/27 06:33:10;;;;;;;2.10;1.10;;;11.80;84.50;;;;;;5056754;28;20044;-74
2021/05/27 06:35:36;;;;;;;2.13;1.40;;;11.90;85.20;;;;;;5065779;28;20179;-73
2021/05/27 06:38:03;;;;;;;2.85;1.40;;;12.00;83.90;;;;;;5044414;28;20470;-72
2021/05/27 06:40:29;;;;;;;3.97;1.40;;;12.10;83.80;;;;;;5045547;28;20124;-72
2021/05/27 06:42:55;;;;;;;3.35;1.60;;;12.20;84.10;;;;;;5061982;28;20493;-73
2021/05/27 06:45:22;;;;;;;4.18;1.50;;;12.30;83.10;;;;;;5073354;28;20037;-73
2021/05/27 06:47:49;;;;;;;3.97;1.52;;;12.30;83.60;;;;;;5056022;28;20146;-72
2021/05/27 06:50:31;;;;;;;2.72;1.23;;;12.30;82.90;;;;;;5062681;28;20024;-72
2021/05/27 06:52:58;;;;;;;3.67;1.15;;;12.40;82.50;;;;;;5043595;28;20032;-71
2021/05/27 06:55:24;;;;;;;2.58;1.38;;;12.40;82.00;;;;;;5074503;28;20061;-72
2021/05/27 06:57:49;;;;;;;4.07;1.50;;;12.40;81.20;;;;;;5056103;28;20024;-72
2021/05/27 07:00:20;;;;;;;3.30;1.30;;;12.50;81.20;;;;;;5056900;28;20052;-72
2021/05/27 07:02:47;;;;;;;3.67;1.40;;;12.50;81.20;;;;;;5056063;28;20033;-73
2021/05/27 07:05:13;;;;;;;2.15;1.10;;;12.50;80.30;;;;;;5056604;28;20028;-72
2021/05/27 07:07:39;;;;;;;3.42;1.40;;;12.50;81.20;;;;;;5074021;28;20071;-72
2021/05/27 07:10:05;;;;;;;1.80;1.40;;;12.50;80.00;;;;;;5074510;28;20044;-72
2021/05/27 07:12:32;;;;;;;3.25;1.40;;;12.50;80.50;;;;;;5056417;28;20028;-72
2021/05/27 07:14:58;;;;;;;4.30;1.35;;;12.60;79.90;;;;;;5056550;28;20036;-72
2021/05/27 07:17:24;;;;;;;3.13;1.38;;;12.70;80.40;;;;;;5073932;28;20424;-72
2021/05/27 07:19:51;;;;;;;3.47;1.75;;;12.70;78.90;;;;;;5073043;28;20059;-72
2021/05/27 07:22:17;;;;;;;4.30;1.48;;;12.80;78.80;;;;;;5063346;28;20040;-73
2021/05/27 07:24:44;;;;;;;5.45;1.40;;;12.90;78.40;;;;;;5035029;28;20033;-72
2021/05/27 07:27:09;;;;;;;3.28;1.17;;;13.00;77.90;;;;;;5035560;28;20029;-72
2021/05/27 07:29:35;;;;;;;3.60;1.27;;;13.00;77.10;;;;;;5053136;28;20040;-73
2021/05/27 07:32:01;;;;;;;1.95;1.50;;;13.00;77.00;;;;;;5035921;28;20485;-73
2021/05/27 07:34:27;;;;;;;4.43;1.50;;;13.00;77.00;;;;;;5036310;28;20033;-71
2021/05/27 07:36:53;;;;;;;2.55;1.30;;;13.10;77.00;;;;;;5035494;28;20036;-71
2021/05/27 07:39:19;;;;;;;2.88;1.05;;;13.10;76.90;;;;;;5053722;28;20021;-72
2021/05/27 07:41:45;;;;;;;2.55;1.10;;;13.10;76.00;;;;;;5070758;28;20047;-73
2021/05/27 07:44:10;;;;;;;4.15;1.40;;;13.20;77.10;;;;;;5073868;28;20020;-73
2021/05/27 07:46:36;;;;;;;1.88;1.17;;;13.20;76.70;;;;;;5055356;28;20105;-73
2021/05/27 07:49:02;;;;;;;2.22;1.40;;;13.20;76.70;;;;;;5073664;28;20434;-73
2021/05/27 07:51:27;;;;;;;3.00;1.00;;;13.20;76.90;;;;;;5055322;28;20032;-73
2021/05/27 07:53:53;;;;;;;2.50;1.20;;;13.20;77.60;;;;;;5054809;28;20031;-73
2021/05/27 07:56:19;;;;;;;4.60;1.20;;;13.00;75.10;;;;;;5055895;28;20037;-73
2021/05/27 07:58:44;;;;;;;2.42;1.42;;;13.00;76.60;;;;;;5072849;28;20374;-73
2021/05/27 08:01:10;;;;;;;2.45;1.42;;;13.10;76.70;;;;;;5073576;28;20029;-73
2021/05/27 08:03:36;;;;;;;3.70;1.58;;;13.30;76.30;;;;;;5054380;28;20035;-73
2021/05/27 08:06:02;;;;;;;3.15;1.10;;;13.40;75.20;;;;;;5073417;28;20078;-72
2021/05/27 08:08:28;;;;;;;2.03;1.10;;;13.40;74.70;;;;;;5073282;28;20050;-72
2021/05/27 08:10:53;;;;;;;3.75;1.40;;;13.50;72.80;;;;;;5072728;28;20029;-72
2021/05/27 08:13:19;;;;;;;1.30;1.00;;;13.60;73.80;;;;;;5055308;28;20147;-72
2021/05/27 08:15:44;;;;;;;2.80;0.93;;;13.70;72.70;;;;;;5054389;28;20036;-72
2021/05/27 08:18:10;;;;;;;2.25;1.10;;;13.80;73.30;;;;;;5055338;28;20070;-72
2021/05/27 08:20:37;;;;;;;1.83;1.20;;;13.80;71.40;;;;;;5061526;28;20465;-75
2021/05/27 08:23:03;;;;;;;2.58;1.10;;;13.90;71.10;;;;;;5034671;28;20051;-72
2021/05/27 08:25:29;;;;;;;2.75;1.20;;;13.90;70.80;;;;;;5035083;28;20040;-73
2021/05/27 08:27:55;;;;;;;4.72;0.93;;;13.90;70.70;;;;;;5052566;28;20021;-73
2021/05/27 08:30:21;;;;;;;1.35;1.05;;;13.90;69.60;;;;;;5037412;28;20016;-72
2021/05/27 08:32:47;;;;;;;2.38;0.85;;;13.80;68.90;;;;;;5052504;28;20025;-72
2021/05/27 08:35:13;;;;;;;1.38;0.93;;;13.80;68.70;;;;;;5072217;28;20039;-72
2021/05/27 08:37:38;;;;;;;2.45;0.93;;;13.80;69.20;;;;;;5072093;28;20083;-73
2021/05/27 08:40:04;;;;;;;2.40;0.80;;;13.70;69.70;;;;;;5054371;28;20025;-73
2021/05/27 08:42:30;;;;;;;2.10;0.75;;;13.70;69.20;;;;;;5054513;28;20032;-74
2021/05/27 08:44:57;;;;;;;2.92;0.90;;;13.60;69.70;;;;;;5053235;28;20315;-72
2021/05/27 08:47:23;;;;;;;2.28;0.75;;;13.60;70.50;;;;;;5072330;28;20024;-71
2021/05/27 08:49:50;;;;;;;3.97;1.08;;;13.60;70.50;;;;;;5049133;28;20493;-71
2021/05/27 08:52:17;;;;;;;2.60;0.90;;;13.60;69.40;;;;;;5034778;28;20033;-75
2021/05/27 08:54:42;;;;;;;3.38;1.20;;;13.70;70.00;;;;;;5034360;28;20036;-73
2021/05/27 08:57:08;;;;;;;3.22;0.90;;;13.70;70.50;;;;;;5051755;28;20028;-71
2021/05/27 08:59:34;;;;;;;3.05;1.08;;;13.80;71.00;;;;;;5034880;28;20454;-72
2021/05/27 09:02:07;;;;;;;3.22;0.85;;;13.90;70.10;;;;;;5044095;28;20021;-71
2021/05/27 09:04:34;;;;;;;5.53;0.95;;;14.00;69.60;;;;;;5072158;28;20029;-71
2021/05/27 09:07:00;;;;;;;1.67;0.90;;;14.10;69.20;;;;;;5053868;28;20469;-71
2021/05/27 09:09:48;;;;;;;2.47;1.13;;;14.20;68.90;;;;;;5072344;28;20028;-71
2021/05/27 09:12:35;;;;;;;2.33;0.98;;;14.20;66.20;;;;;;5054310;28;20039;-71
2021/05/27 09:15:05;;;;;;;2.35;1.10;;;14.20;66.30;;;;;;5053240;28;20075;-71
2021/05/27 09:17:51;;;;;;;1.45;0.80;;;14.20;67.20;;;;;;5054177;28;20048;-72
2021/05/27 09:20:20;;;;;;;1.35;0.85;;;14.30;67.30;;;;;;5045975;28;20021;-71
2021/05/27 09:22:48;;;;;;;1.55;0.80;;;14.20;67.10;;;;;;5051563;28;20052;-71
2021/05/27 09:25:28;;;;;;;0.98;0.80;;;14.20;67.90;;;;;;5034206;28;20030;-71
2021/05/27 09:27:54;;;;;;;3.53;1.10;;;14.20;67.90;;;;;;5033801;28;20025;-71
2021/05/27 09:30:22;;;;;;;1.75;0.90;;;14.20;67.60;;;;;;5052212;28;20033;-70
2021/05/27 09:32:50;;;;;;;1.77;0.85;;;14.20;67.50;;;;;;5033495;28;20029;-71
2021/05/27 09:35:18;;;;;;;0.90;0.90;;;14.10;67.60;;;;;;5034314;28;20029;-71
2021/05/27 09:37:55;;;;;;;1.38;0.88;;;14.00;69.00;;;;;;5033350;28;20083;-71
2021/05/27 09:40:28;;;;;;;1.13;0.90;;;13.90;68.70;;;;;;5034239;28;20123;-72
2021/05/27 09:42:53;;;;;;;1.75;1.00;;;13.90;68.70;;;;;;5033802;28;20120;-72
2021/05/27 09:45:20;;;;;;;1.30;0.95;;;13.90;68.50;;;;;;5034176;28;20112;-71
2021/05/27 09:47:45;;;;;;;1.33;0.95;;;13.80;68.50;;;;;;5033616;28;20033;-71
2021/05/27 09:50:12;;;;;;;1.88;0.80;;;13.90;69.20;;;;;;5033985;28;20022;-71
2021/05/27 09:52:46;;;;;;;2.30;0.80;;;14.00;68.90;;;;;;5033608;28;20079;-71
2021/05/27 09:55:13;;;;;;;3.90;0.90;;;14.00;68.40;;;;;;5033836;28;20087;-71
2021/05/27 09:57:41;;;;;;;1.10;0.98;;;14.10;68.40;;;;;;5036408;28;20095;-72
2021/05/27 10:00:28;;;;;;;2.15;0.80;;;14.10;67.90;;;;;;5055549;28;20057;-71
2021/05/27 10:02:54;;;;;;;3.53;0.80;;;14.20;68.90;;;;;;5055107;28;20036;-72
2021/05/27 10:05:20;;;;;;;1.52;0.90;;;14.20;68.20;;;;;;5037824;28;20025;-72
2021/05/27 10:07:51;;;;;;;1.77;0.98;;;14.30;67.80;;;;;;5054969;28;20074;-71
2021/05/27 10:10:21;;;;;;;2.20;0.82;;;14.40;67.60;;;;;;5037961;28;20021;-71
2021/05/27 10:12:50;;;;;;;1.65;0.98;;;14.50;67.70;;;;;;5037260;28;20477;-71
2021/05/27 10:15:18;;;;;;;2.33;0.60;;;14.50;67.20;;;;;;5037138;28;20033;-72
2021/05/27 10:17:47;;;;;;;3.83;1.10;;;14.50;66.50;;;;;;5054583;28;20036;-72
2021/05/27 10:20:21;;;;;;;1.25;0.70;;;14.50;67.00;;;;;;5037478;28;20017;-71
2021/05/27 10:22:48;;;;;;;2.47;0.77;;;14.60;67.60;;;;;;5036886;28;20049;-71
2021/05/27 10:25:16;;;;;;;1.15;0.73;;;14.60;67.50;;;;;;5037591;28;20029;-71
2021/05/27 10:27:53;;;;;;;0.90;0.60;;;14.50;67.60;;;;;;5036731;28;20036;-72
2021/05/27 10:30:21;;;;;;;2.58;0.90;;;14.50;67.60;;;;;;5055299;28;20025;-72
2021/05/27 10:32:58;;;;;;;1.25;0.80;;;14.50;67.70;;;;;;5036809;28;20086;-72
2021/05/27 10:35:45;;;;;;;2.03;0.80;;;14.50;67.80;;;;;;5055093;28;20029;-71
2021/05/27 10:38:11;;;;;;;2.88;1.00;;;14.50;67.20;;;;;;5037425;28;20115;-71
2021/05/27 10:40:38;;;;;;;3.78;1.15;;;14.60;67.40;;;;;;5054609;28;20029;-72
2021/05/27 10:43:08;;;;;;;1.88;0.98;;;14.60;67.70;;;;;;5036152;28;20059;-72
2021/05/27 10:45:36;;;;;;;3.03;1.00;;;14.60;67.90;;;;;;5036329;28;20025;-70
2021/05/27 10:48:14;;;;;;;2.28;0.80;;;14.50;67.60;;;;;;5036052;28;20032;-71
2021/05/27 10:51:21;;;;;;;19.33;7.35;;;14.50;67.60;;;;;;5036235;28;20107;-70
2021/05/27 10:53:49;;;;;;;3.55;1.30;;;14.70;67.90;;;;;;5062571;28;20435;-71
2021/05/27 10:56:35;;;;;;;3.55;0.90;;;14.90;67.50;;;;;;5056510;28;20032;-71
2021/05/27 10:59:01;;;;;;;1.95;1.05;;;15.00;65.70;;;;;;5059757;28;20315;-72
2021/05/27 11:01:30;;;;;;;3.53;1.02;;;15.10;65.60;;;;;;5056547;28;20111;-72
2021/05/27 11:04:05;;;;;;;2.08;0.80;;;15.20;65.60;;;;;;5056023;28;20032;-72
2021/05/27 11:06:40;;;;;;;1.30;1.00;;;15.10;64.70;;;;;;5056574;28;20021;-71
2021/05/27 11:11:35;;;;;;;1.83;0.90;;;14.90;64.60;;;;;;5074397;28;20047;-70
2021/05/27 11:14:28;;;;;;;1.25;0.70;;;14.90;64.30;;;;;;5055737;28;20248;-71
2021/05/27 11:22:29;;;;;;;1.23;0.77;;;15.10;63.80;;;;;;5073923;28;20087;-71
2021/05/27 11:25:07;;;;;;;1.35;0.73;;;15.20;63.80;;;;;;5055800;28;20131;-72
2021/05/27 11:27:43;;;;;;;4.28;0.93;;;15.20;64.00;;;;;;5056057;28;20028;-72
2021/05/27 11:30:19;;;;;;;2.13;0.70;;;15.30;64.40;;;;;;5074344;28;20028;-72
2021/05/27 11:32:46;;;;;;;4.38;0.60;;;15.40;64.40;;;;;;5055386;28;20546;-72
2021/05/27 11:35:13;;;;;;;2.13;0.82;;;15.70;63.60;;;;;;5055972;28;20052;-72
2021/05/27 11:37:40;;;;;;;1.13;0.60;;;15.80;63.00;;;;;;5073571;28;20032;-72
2021/05/27 11:40:11;;;;;;;3.17;0.73;;;15.70;63.50;;;;;;5073775;28;20025;-72
2021/05/27 11:42:37;;;;;;;1.50;0.93;;;15.60;63.30;;;;;;5055959;28;20127;-71
2021/05/27 11:45:06;;;;;;;1.83;0.70;;;15.60;64.40;;;;;;5073301;28;20099;-71
2021/05/27 11:47:32;;;;;;;2.45;0.90;;;15.60;62.20;;;;;;5054865;28;20112;-72
2021/05/27 11:50:05;;;;;;;1.00;0.70;;;15.70;61.50;;;;;;5049700;28;20112;-71
2021/05/27 11:52:31;;;;;;;1.05;0.70;;;15.80;60.50;;;;;;5035768;28;20042;-71
2021/05/27 11:54:57;;;;;;;1.75;0.70;;;16.00;60.20;;;;;;5035240;28;20029;-71
2021/05/27 11:57:39;;;;;;;3.75;0.77;;;16.10;60.60;;;;;;5035639;28;20029;-72
2021/05/27 12:00:06;;;;;;;1.73;0.77;;;16.20;60.50;;;;;;5052870;28;20032;-73
2021/05/27 12:02:52;;;;;;;2.97;0.75;;;16.20;60.80;;;;;;5035599;28;20040;-72
2021/05/27 12:05:32;;;;;;;2.45;1.00;;;16.10;60.50;;;;;;5035142;28;20482;-73
2021/05/27 12:08:01;;;;;;;0.80;0.70;;;15.90;61.30;;;;;;5034721;28;20382;-73
2021/05/27 12:10:44;;;;;;;2.58;0.90;;;15.80;61.70;;;;;;5053504;28;20028;-73
2021/05/27 12:13:21;;;;;;;3.15;0.80;;;15.70;62.20;;;;;;5035316;28;20363;-73
2021/05/27 12:15:49;;;;;;;1.13;0.85;;;15.90;61.80;;;;;;5034539;28;20520;-73
2021/05/27 12:18:16;;;;;;;3.25;0.82;;;16.00;62.00;;;;;;5035375;28;20029;-72
2021/05/27 12:20:48;;;;;;;3.22;0.60;;;15.90;61.70;;;;;;5033801;28;20032;-73
2021/05/27 12:23:16;;;;;;;1.08;0.50;;;15.90;61.20;;;;;;5031667;28;20072;-72
2021/05/27 12:25:45;;;;;;;1.23;0.50;;;15.90;59.90;;;;;;5031088;28;20037;-72
2021/05/27 12:28:11;;;;;;;1.73;0.50;;;15.70;60.20;;;;;;5032609;28;20103;-71
2021/05/27 12:30:40;;;;;;;0.77;0.60;;;15.70;60.30;;;;;;5032803;28;20029;-74
2021/05/27 12:33:09;;;;;;;0.82;0.60;;;15.60;61.00;;;;;;5014911;28;20068;-74
2021/05/27 12:35:40;;;;;;;1.33;0.70;;;15.60;60.40;;;;;;5033068;28;20480;-73
2021/05/27 12:38:26;;;;;;;2.72;0.70;;;15.60;59.70;;;;;;5031549;28;20080;-73
2021/05/27 12:40:59;;;;;;;1.85;0.50;;;15.70;60.30;;;;;;5031011;28;20029;-73
2021/05/27 12:43:26;;;;;;;0.90;0.60;;;15.80;59.70;;;;;;5031457;28;20068;-74
2021/05/27 12:45:54;;;;;;;1.45;0.60;;;15.90;60.10;;;;;;5030715;28;20025;-71
2021/05/27 12:48:26;;;;;;;0.40;0.40;;;15.80;59.10;;;;;;5014391;28;20471;-72
2021/05/27 12:50:52;;;;;;;1.42;0.50;;;15.80;59.80;;;;;;5030565;28;20032;-72
2021/05/27 12:53:37;;;;;;;2.28;0.77;;;15.80;60.40;;;;;;5032596;28;20116;-72
2021/05/27 12:56:23;;;;;;;2.53;0.80;;;15.90;60.90;;;;;;5014259;28;20095;-72
2021/05/27 12:58:51;;;;;;;1.35;0.60;;;16.00;60.80;;;;;;5014390;28;20080;-72
2021/05/27 13:01:38;;;;;;;2.60;0.60;;;16.30;60.60;;;;;;5014776;28;20112;-72
2021/05/27 13:04:06;;;;;;;2.35;0.80;;;16.50;59.50;;;;;;5005433;28;20471;-72
2021/05/27 13:06:33;;;;;;;1.25;0.70;;;16.60;59.90;;;;;;5012495;28;20542;-72
2021/05/27 13:09:09;;;;;;;1.25;0.70;;;16.60;59.30;;;;;;5011591;28;20467;-72